Time;durP1;ratioP1;P1;durP2;ratioP2;P2;SDS_P1;SDS_P2;PMS_P1;PMS_P2;Temp;Humidity;BMP_temperature;BMP_pressure;BME280_temperature;BME280_humidity;BME280_pressure;Samples;Min_cycle;Max_cycle;Signal;HPM_P1;HPM_P2
2023/01/30 00:01:18;;;;;;;12.55;6.63;;;8.30;99.90;;;;;;4921221;29;20050;-73
2023/01/30 00:03:44;;;;;;;12.80;6.65;;;8.40;99.90;;;;;;4953355;29;20402;-73
2023/01/30 00:06:10;;;;;;;16.33;7.97;;;8.40;99.90;;;;;;4953102;29;20039;-73
2023/01/30 00:08:35;;;;;;;13.80;7.22;;;8.40;99.90;;;;;;4952884;29;20078;-73
2023/01/30 00:11:06;;;;;;;13.35;7.00;;;8.40;99.90;;;;;;4952770;29;20125;-73
2023/01/30 00:13:32;;;;;;;14.05;7.03;;;8.40;99.90;;;;;;4952901;29;20047;-73
2023/01/30 00:15:58;;;;;;;12.18;6.97;;;8.40;99.90;;;;;;4936493;29;20150;-73
2023/01/30 00:18:23;;;;;;;12.50;6.53;;;8.40;99.90;;;;;;4952149;28;20118;-73
2023/01/30 00:20:55;;;;;;;11.82;6.72;;;8.40;99.90;;;;;;4952669;29;20126;-72
2023/01/30 00:23:21;;;;;;;13.77;6.30;;;8.40;99.90;;;;;;4936274;29;20110;-72
2023/01/30 00:25:47;;;;;;;10.60;6.28;;;8.30;99.90;;;;;;4951323;28;20094;-72
2023/01/30 00:28:12;;;;;;;17.83;6.63;;;8.40;99.90;;;;;;4971710;28;20043;-73
2023/01/30 00:30:38;;;;;;;13.90;5.82;;;8.40;99.90;;;;;;4955638;28;20133;-73
2023/01/30 00:33:04;;;;;;;10.63;5.72;;;8.40;99.90;;;;;;4967847;28;20043;-73
2023/01/30 00:35:29;;;;;;;14.20;6.00;;;8.30;99.90;;;;;;4952160;28;20062;-73
2023/01/30 00:37:56;;;;;;;14.10;5.97;;;8.30;99.90;;;;;;4952410;29;20110;-73
2023/01/30 00:40:26;;;;;;;12.07;5.53;;;8.40;99.90;;;;;;4952199;29;20055;-73
2023/01/30 00:48:24;;;;;;;8.88;5.07;;;8.40;99.90;;;;;;4952286;29;20136;-73
2023/01/30 00:50:49;;;;;;;10.35;5.43;;;8.40;99.90;;;;;;4935935;29;20043;-73
2023/01/30 00:53:15;;;;;;;11.50;5.07;;;8.40;99.90;;;;;;4936604;29;20066;-72
2023/01/30 00:55:42;;;;;;;10.80;5.07;;;8.40;99.90;;;;;;4936088;29;20490;-73
2023/01/30 00:58:08;;;;;;;;;;;8.40;99.90;;;;;;4952352;29;20545;-73
2023/01/30 01:00:34;;;;;;;11.38;5.00;;;8.40;99.90;;;;;;4935947;29;19918;-72
2023/01/30 01:03:00;;;;;;;11.68;5.00;;;8.40;99.90;;;;;;4936200;29;20093;-72
2023/01/30 01:05:26;;;;;;;11.27;5.10;;;8.50;99.90;;;;;;4935946;29;20043;-73
2023/01/30 01:07:52;;;;;;;9.05;4.43;;;8.40;99.90;;;;;;4935627;29;20043;-73
2023/01/30 01:10:17;;;;;;;9.43;4.45;;;8.50;99.90;;;;;;4936253;29;20046;-73
2023/01/30 01:12:43;;;;;;;10.95;4.47;;;8.50;99.90;;;;;;4935700;29;20126;-73
2023/01/30 01:15:11;;;;;;;9.20;4.43;;;8.60;99.90;;;;;;4935782;29;20094;-73
2023/01/30 01:17:37;;;;;;;7.35;3.63;;;8.70;99.90;;;;;;4935570;29;20483;-73
2023/01/30 01:20:03;;;;;;;8.77;4.00;;;8.60;99.90;;;;;;4935945;29;20054;-73
2023/01/30 01:22:29;;;;;;;;;;;8.80;99.90;;;;;;4910712;29;20142;-73
2023/01/30 01:24:55;;;;;;;11.13;4.00;;;8.70;99.90;;;;;;4928778;28;20108;-74
2023/01/30 01:27:20;;;;;;;5.90;3.28;;;8.90;99.90;;;;;;4954766;28;20109;-73
2023/01/30 01:29:46;;;;;;;11.82;4.05;;;8.80;99.90;;;;;;4954144;28;20045;-74
2023/01/30 01:32:12;;;;;;;10.93;3.70;;;9.10;99.90;;;;;;4954650;28;20046;-73
2023/01/30 01:34:37;;;;;;;7.07;3.75;;;9.00;99.90;;;;;;4954533;28;20057;-73
2023/01/30 01:37:03;;;;;;;6.47;3.50;;;9.30;99.90;;;;;;4935996;29;20039;-73
2023/01/30 01:41:00;;;;;;;9.43;3.85;;;9.10;99.90;;;;;;4934350;29;20047;-73
2023/01/30 01:42:14;;;;;;;5.72;3.20;;;9.40;99.90;;;;;;4935316;29;20365;-73
2023/01/30 01:45:17;;;;;;;7.65;3.47;;;9.30;99.90;;;;;;4935268;29;20050;-73
2023/01/30 01:47:58;;;;;;;7.75;3.40;;;9.20;99.90;;;;;;4858783;29;20142;-73
2023/01/30 01:50:29;;;;;;;9.65;3.65;;;9.10;99.90;;;;;;4928179;29;20488;-73
2023/01/30 01:52:59;;;;;;;7.95;3.50;;;9.40;99.90;;;;;;4935225;29;20122;-73
2023/01/30 01:55:26;;;;;;;7.70;4.07;;;9.60;99.90;;;;;;4935237;29;20487;-73
2023/01/30 01:57:57;;;;;;;11.07;3.92;;;9.50;99.90;;;;;;4919150;29;20051;-73
2023/01/30 02:00:24;;;;;;;8.80;4.10;;;9.30;99.90;;;;;;4933265;29;20092;-73
2023/01/30 02:02:59;;;;;;;10.85;4.63;;;9.60;99.90;;;;;;4916030;29;20499;-73
2023/01/30 02:05:32;;;;;;;8.38;4.38;;;9.60;99.90;;;;;;4900160;29;20099;-73
2023/01/30 02:08:04;;;;;;;15.05;4.95;;;9.60;99.90;;;;;;4927368;29;20047;-73
2023/01/30 02:10:52;;;;;;;14.25;4.90;;;9.90;99.90;;;;;;4915741;29;20551;-74
2023/01/30 02:13:19;;;;;;;15.52;5.20;;;9.80;99.90;;;;;;4923495;29;20059;-73
2023/01/30 02:15:45;;;;;;;13.30;5.07;;;9.60;99.90;;;;;;4934783;29;20058;-73
2023/01/30 02:18:12;;;;;;;17.45;5.68;;;10.10;99.90;;;;;;4934864;29;20047;-73
2023/01/30 02:21:06;;;;;;;15.32;5.40;;;9.90;99.90;;;;;;4935043;29;20395;-73
2023/01/30 02:24:10;;;;;;;15.18;5.43;;;9.80;99.90;;;;;;4917244;29;20400;-74
2023/01/30 02:27:07;;;;;;;17.65;5.50;;;10.10;99.90;;;;;;4944123;28;20050;-74
2023/01/30 02:29:47;;;;;;;15.73;4.90;;;10.10;99.90;;;;;;4907328;29;20047;-74
2023/01/30 02:32:19;;;;;;;15.80;5.45;;;9.90;99.90;;;;;;4920871;29;20032;-73
2023/01/30 02:34:48;;;;;;;16.20;5.55;;;10.20;99.90;;;;;;4922929;28;20067;-73
2023/01/30 02:37:40;;;;;;;20.25;5.60;;;10.00;99.90;;;;;;4932903;29;20071;-73
2023/01/30 02:40:48;;;;;;;16.88;5.03;;;9.90;99.90;;;;;;4931366;29;20127;-73
2023/01/30 02:43:39;;;;;;;18.08;5.30;;;9.80;99.90;;;;;;4926145;29;20069;-73
2023/01/30 02:46:10;;;;;;;21.83;4.70;;;9.80;99.90;;;;;;4931796;29;20099;-74
2023/01/30 02:48:41;;;;;;;16.10;5.00;;;9.70;99.90;;;;;;4936747;29;20440;-73
2023/01/30 02:51:40;;;;;;;19.60;5.32;;;10.00;99.90;;;;;;4938586;29;20098;-73
2023/01/30 02:54:09;;;;;;;17.50;4.97;;;9.80;99.90;;;;;;4918842;29;20786;-73
2023/01/30 02:56:53;;;;;;;20.17;5.05;;;10.10;99.90;;;;;;4934482;29;20047;-73
2023/01/30 02:59:33;;;;;;;20.65;4.75;;;10.10;99.90;;;;;;4912250;29;20047;-73
2023/01/30 03:02:17;;;;;;;19.35;4.85;;;9.80;99.90;;;;;;4951164;29;20523;-73
2023/01/30 03:05:01;;;;;;;17.92;4.45;;;10.00;99.90;;;;;;4935164;29;20044;-73
2023/01/30 03:07:42;;;;;;;21.10;4.32;;;10.10;99.90;;;;;;4949418;28;20066;-73
2023/01/30 03:10:38;;;;;;;22.58;4.47;;;10.00;99.90;;;;;;4954353;29;20050;-73
2023/01/30 03:13:12;;;;;;;16.92;3.92;;;9.90;99.90;;;;;;4954282;29;20157;-73
2023/01/30 03:15:41;;;;;;;17.27;4.50;;;9.70;99.90;;;;;;4954234;29;20051;-73
2023/01/30 03:18:08;;;;;;;17.80;4.13;;;9.70;99.90;;;;;;4938300;29;20528;-73
2023/01/30 03:20:37;;;;;;;;;;;9.60;99.90;;;;;;4954610;29;20095;-73
2023/01/30 03:23:03;;;;;;;15.35;3.60;;;9.60;99.90;;;;;;4953963;29;19939;-74
2023/01/30 03:25:31;;;;;;;17.42;3.65;;;9.40;99.90;;;;;;4937990;29;20252;-74
2023/01/30 03:27:57;;;;;;;17.95;4.28;;;9.40;99.90;;;;;;4951724;29;20043;-73
2023/01/30 03:30:25;;;;;;;19.33;3.83;;;9.20;99.90;;;;;;4922515;29;20051;-73
2023/01/30 03:32:51;;;;;;;17.13;3.97;;;9.00;99.90;;;;;;4954012;28;20035;-73
2023/01/30 03:35:16;;;;;;;24.52;4.72;;;8.80;99.90;;;;;;4953770;28;20174;-73
2023/01/30 03:37:44;;;;;;;18.40;3.47;;;8.60;99.90;;;;;;4952982;29;20138;-73
2023/01/30 03:40:12;;;;;;;17.50;3.80;;;8.40;99.90;;;;;;4950374;29;20039;-73
2023/01/30 03:42:38;;;;;;;18.92;3.78;;;8.40;99.90;;;;;;4938820;29;20054;-73
2023/01/30 03:45:04;;;;;;;20.58;3.38;;;8.20;99.90;;;;;;4956534;28;20046;-73
2023/01/30 03:47:29;;;;;;;16.15;3.47;;;8.10;99.90;;;;;;4963272;28;20043;-73
2023/01/30 03:49:55;;;;;;;16.08;2.90;;;7.90;99.90;;;;;;4953862;29;20031;-73
2023/01/30 03:52:21;;;;;;;19.48;4.07;;;7.80;99.90;;;;;;4952628;28;20044;-73
2023/01/30 03:54:46;;;;;;;16.58;3.45;;;7.70;99.90;;;;;;4953464;29;20667;-73
2023/01/30 03:57:12;;;;;;;18.70;3.67;;;7.60;99.90;;;;;;4937049;29;20042;-73
2023/01/30 03:59:38;;;;;;;14.63;2.88;;;7.50;99.90;;;;;;4958917;28;20142;-73
2023/01/30 04:02:03;;;;;;;16.60;3.08;;;7.50;99.90;;;;;;4953345;29;20118;-73
2023/01/30 04:04:29;;;;;;;18.67;3.85;;;7.50;99.90;;;;;;4953193;29;20062;-73
2023/01/30 04:06:55;;;;;;;20.58;4.28;;;7.50;99.90;;;;;;4947809;29;20073;-73
2023/01/30 04:09:20;;;;;;;20.00;4.30;;;7.50;99.90;;;;;;4941155;29;20158;-73
2023/01/30 04:11:46;;;;;;;15.82;4.45;;;7.40;99.90;;;;;;4902404;29;20114;-73
2023/01/30 04:14:12;;;;;;;22.65;3.58;;;7.40;99.90;;;;;;4953164;29;20042;-73
2023/01/30 04:16:38;;;;;;;17.42;3.97;;;7.40;99.90;;;;;;4953198;29;20050;-73
2023/01/30 04:19:03;;;;;;;23.30;3.92;;;7.40;99.90;;;;;;4952987;29;20565;-73
2023/01/30 04:21:29;;;;;;;20.27;3.83;;;7.30;99.90;;;;;;4954548;28;20047;-73
2023/01/30 04:23:54;;;;;;;20.45;3.80;;;7.20;99.90;;;;;;4935741;29;20051;-73
2023/01/30 04:26:20;;;;;;;15.30;3.45;;;7.10;99.90;;;;;;4933320;29;20051;-73
2023/01/30 04:28:46;;;;;;;15.77;3.00;;;7.00;99.90;;;;;;4952996;29;20126;-73
2023/01/30 04:31:11;;;;;;;19.75;3.40;;;7.00;99.90;;;;;;4952102;29;20459;-73
2023/01/30 04:33:38;;;;;;;22.30;3.90;;;7.00;99.90;;;;;;4936919;29;20126;-73
2023/01/30 04:36:06;;;;;;;18.17;3.72;;;7.00;99.90;;;;;;4914684;29;20079;-73
2023/01/30 04:38:33;;;;;;;17.95;3.85;;;6.90;99.90;;;;;;4936913;29;20097;-73
2023/01/30 04:40:59;;;;;;;22.55;4.40;;;6.80;99.90;;;;;;4951828;29;20043;-73
2023/01/30 04:43:26;;;;;;;19.13;3.20;;;6.90;99.90;;;;;;4949049;29;20095;-73
2023/01/30 04:45:52;;;;;;;23.00;3.92;;;6.90;99.90;;;;;;4945230;29;20118;-73
2023/01/30 04:48:19;;;;;;;18.23;3.90;;;7.00;99.90;;;;;;4951915;29;20047;-72
2023/01/30 04:50:48;;;;;;;24.13;3.72;;;7.00;99.90;;;;;;4948003;29;20506;-73
2023/01/30 04:53:14;;;;;;;18.23;3.65;;;7.00;99.90;;;;;;4938060;29;20102;-73
2023/01/30 04:55:40;;;;;;;;;;;7.00;99.90;;;;;;4947678;29;20138;-72
2023/01/30 04:58:05;;;;;;;22.17;3.55;;;7.00;99.90;;;;;;4922077;29;20017;-72
2023/01/30 05:00:31;;;;;;;28.30;3.47;;;6.90;99.90;;;;;;4926914;29;20488;-72
2023/01/30 05:02:57;;;;;;;23.80;4.28;;;6.90;99.90;;;;;;4926690;29;20047;-72
2023/01/30 05:05:23;;;;;;;23.67;3.75;;;6.80;99.90;;;;;;4922570;29;20558;-72
2023/01/30 05:07:49;;;;;;;;;;;6.80;99.90;;;;;;4934699;29;20055;-72
2023/01/30 05:10:15;;;;;;;20.45;4.03;;;6.80;99.90;;;;;;4917079;29;19934;-72
2023/01/30 05:12:41;;;;;;;24.63;3.78;;;6.80;99.90;;;;;;4917000;29;20050;-72
2023/01/30 05:15:08;;;;;;;17.92;3.10;;;6.70;99.90;;;;;;4916865;29;20051;-72
2023/01/30 05:17:34;;;;;;;21.67;4.03;;;6.60;99.90;;;;;;4916753;29;20047;-72
2023/01/30 05:20:00;;;;;;;28.63;3.72;;;6.60;99.90;;;;;;4916849;29;20058;-73
2023/01/30 05:22:25;;;;;;;19.77;3.70;;;6.50;99.90;;;;;;4929535;29;20039;-72
2023/01/30 05:24:51;;;;;;;18.42;4.00;;;6.40;99.90;;;;;;4935727;29;20482;-72
2023/01/30 05:27:17;;;;;;;16.38;3.63;;;6.40;99.90;;;;;;4935725;29;20055;-72
2023/01/30 05:29:44;;;;;;;18.95;3.58;;;6.40;99.90;;;;;;4935908;29;20491;-72
2023/01/30 05:32:11;;;;;;;;;;;6.30;99.90;;;;;;4935500;29;20454;-72
2023/01/30 05:34:37;;;;;;;21.02;3.17;;;6.30;99.90;;;;;;4935926;29;19997;-73
2023/01/30 05:37:02;;;;;;;22.90;4.28;;;6.40;99.90;;;;;;4935537;29;20623;-72
2023/01/30 05:39:28;;;;;;;21.98;4.15;;;6.40;99.90;;;;;;4935555;29;20050;-72
2023/01/30 05:41:54;;;;;;;21.08;3.70;;;6.50;99.90;;;;;;4919686;29;20046;-72
2023/01/30 05:44:19;;;;;;;26.35;3.63;;;6.40;99.90;;;;;;4919816;29;20053;-72
2023/01/30 05:46:45;;;;;;;16.23;4.00;;;6.40;99.90;;;;;;4935237;29;20158;-72
2023/01/30 05:49:10;;;;;;;22.00;3.58;;;6.30;99.90;;;;;;4931728;29;20039;-73
2023/01/30 05:51:36;;;;;;;25.80;3.90;;;6.30;99.90;;;;;;4934226;29;20567;-72
2023/01/30 05:54:02;;;;;;;23.42;3.95;;;6.20;99.90;;;;;;4935184;29;20054;-72
2023/01/30 05:56:30;;;;;;;19.17;3.95;;;6.20;99.90;;;;;;4933178;29;20105;-72
2023/01/30 05:58:56;;;;;;;26.50;4.30;;;6.30;99.90;;;;;;4940847;29;20059;-73
2023/01/30 06:01:22;;;;;;;18.67;3.90;;;6.30;99.90;;;;;;4947916;29;20031;-72
2023/01/30 06:03:48;;;;;;;20.00;3.60;;;6.30;99.90;;;;;;4942511;29;20047;-73
2023/01/30 06:06:14;;;;;;;28.35;4.43;;;6.30;99.90;;;;;;4934115;29;20381;-73
2023/01/30 06:08:40;;;;;;;21.02;3.70;;;6.30;99.90;;;;;;4948902;28;20538;-73
2023/01/30 06:11:09;;;;;;;26.65;3.90;;;6.40;99.90;;;;;;4950550;29;20122;-73
2023/01/30 06:13:35;;;;;;;21.00;3.80;;;6.40;99.90;;;;;;4942752;29;20051;-73
2023/01/30 06:16:01;;;;;;;25.30;4.28;;;6.40;99.90;;;;;;4936031;29;20122;-72
2023/01/30 06:18:27;;;;;;;18.40;3.20;;;6.50;99.90;;;;;;4929181;29;20473;-72
2023/01/30 06:20:53;;;;;;;24.05;3.38;;;6.60;99.90;;;;;;4933526;29;20450;-72
2023/01/30 06:23:22;;;;;;;23.10;4.85;;;6.60;99.90;;;;;;4951141;29;20079;-73
2023/01/30 06:25:49;;;;;;;17.25;3.88;;;6.60;99.90;;;;;;4945273;28;20059;-73
2023/01/30 06:28:16;;;;;;;19.25;3.67;;;6.60;99.90;;;;;;4945347;29;20070;-74
2023/01/30 06:30:42;;;;;;;22.10;3.78;;;6.60;99.90;;;;;;4945891;29;20082;-71
2023/01/30 06:33:08;;;;;;;22.85;3.83;;;6.60;99.90;;;;;;4942640;29;20563;-72
2023/01/30 06:35:33;;;;;;;22.27;4.38;;;6.60;99.90;;;;;;4946219;28;20129;-72
2023/01/30 06:37:59;;;;;;;26.83;4.55;;;6.70;99.90;;;;;;4943614;28;20035;-72
2023/01/30 06:40:25;;;;;;;21.95;4.18;;;6.70;99.90;;;;;;4943568;29;20043;-72
2023/01/30 06:42:51;;;;;;;25.98;3.58;;;6.60;99.90;;;;;;4946214;29;20094;-72
2023/01/30 06:45:18;;;;;;;25.00;4.35;;;6.70;99.90;;;;;;4952261;29;20036;-71
2023/01/30 06:47:52;;;;;;;23.98;3.95;;;6.60;99.90;;;;;;4937924;29;20054;-72
2023/01/30 06:50:20;;;;;;;17.52;3.00;;;6.60;99.90;;;;;;4954283;29;20774;-74
2023/01/30 06:52:47;;;;;;;28.75;4.35;;;6.60;99.90;;;;;;4952113;29;20084;-72
2023/01/30 06:55:15;;;;;;;19.65;3.15;;;6.60;99.90;;;;;;4946102;28;20054;-73
2023/01/30 06:57:42;;;;;;;26.45;4.15;;;6.60;99.90;;;;;;4949548;29;20509;-72
2023/01/30 07:00:13;;;;;;;21.63;3.67;;;6.60;99.90;;;;;;4951205;29;20065;-72
2023/01/30 07:02:39;;;;;;;22.13;4.60;;;6.60;99.90;;;;;;4928639;29;20119;-74
2023/01/30 07:05:06;;;;;;;25.17;4.50;;;6.60;99.90;;;;;;4950273;29;20046;-73
2023/01/30 07:07:32;;;;;;;23.23;4.38;;;6.60;99.90;;;;;;4952612;29;20418;-73
2023/01/30 07:09:58;;;;;;;21.02;4.43;;;6.70;99.90;;;;;;4941059;29;20122;-73
2023/01/30 07:12:25;;;;;;;21.83;3.95;;;6.70;99.90;;;;;;4934964;29;20039;-73
2023/01/30 07:14:54;;;;;;;19.30;3.72;;;6.70;99.90;;;;;;4960996;28;20050;-73
2023/01/30 07:17:23;;;;;;;22.08;4.68;;;6.80;99.90;;;;;;4972973;28;20078;-73
2023/01/30 07:19:49;;;;;;;23.60;3.60;;;6.80;99.90;;;;;;4948559;28;20093;-73
2023/01/30 07:22:15;;;;;;;21.00;3.33;;;6.80;99.90;;;;;;4945377;29;20044;-71
2023/01/30 07:24:41;;;;;;;24.50;4.72;;;6.70;99.90;;;;;;4938274;29;20044;-73
2023/01/30 07:27:11;;;;;;;18.55;3.50;;;6.70;99.90;;;;;;4942260;29;20055;-74
2023/01/30 07:29:38;;;;;;;23.75;4.40;;;6.70;99.90;;;;;;4948621;29;20035;-73
2023/01/30 07:32:06;;;;;;;29.17;4.85;;;6.70;99.90;;;;;;4949643;29;20090;-73
2023/01/30 07:34:32;;;;;;;23.23;3.95;;;6.70;99.90;;;;;;4953566;29;20043;-72
2023/01/30 07:36:57;;;;;;;20.90;4.05;;;6.70;99.90;;;;;;4937660;29;20055;-72
2023/01/30 07:39:23;;;;;;;28.02;3.83;;;6.70;99.90;;;;;;4953410;29;20183;-73
2023/01/30 07:41:49;;;;;;;26.02;4.40;;;6.80;99.90;;;;;;4921793;29;20058;-73
2023/01/30 07:44:14;;;;;;;26.20;4.10;;;6.70;99.90;;;;;;4953476;29;20039;-72
2023/01/30 07:46:40;;;;;;;22.88;4.72;;;6.80;99.90;;;;;;4953427;29;20195;-72
2023/01/30 07:49:08;;;;;;;24.17;4.05;;;6.80;99.90;;;;;;4953491;29;20058;-73
2023/01/30 07:51:34;;;;;;;23.98;4.57;;;6.70;99.90;;;;;;4937095;29;20841;-72
2023/01/30 07:54:00;;;;;;;28.30;4.57;;;6.80;99.90;;;;;;4935679;29;20052;-72
2023/01/30 07:56:26;;;;;;;;;;;6.80;99.90;;;;;;4947614;29;20043;-72
2023/01/30 07:58:54;;;;;;;23.50;4.22;;;6.80;99.90;;;;;;4953280;29;20378;-72
2023/01/30 08:01:20;;;;;;;17.60;4.15;;;6.80;99.90;;;;;;4949498;29;20399;-72
2023/01/30 08:03:48;;;;;;;21.80;3.85;;;6.80;99.90;;;;;;4934140;29;20058;-73
2023/01/30 08:06:14;;;;;;;23.85;3.70;;;6.80;99.90;;;;;;4941606;29;20098;-72
2023/01/30 08:08:40;;;;;;;;;;;6.80;99.90;;;;;;4950052;29;20044;-72
2023/01/30 08:11:05;;;;;;;18.60;3.53;;;6.80;99.90;;;;;;4952861;29;19925;-73
2023/01/30 08:13:31;;;;;;;19.83;4.70;;;6.80;99.90;;;;;;4937433;29;20043;-72
2023/01/30 08:16:05;;;;;;;19.40;3.75;;;6.90;99.90;;;;;;4928837;29;20122;-72
2023/01/30 08:19:08;;;;;;;22.77;3.78;;;6.90;99.90;;;;;;4948287;29;20110;-73
2023/01/30 08:21:34;;;;;;;17.92;3.83;;;6.90;99.90;;;;;;4916833;29;20035;-72
2023/01/30 08:24:00;;;;;;;23.02;4.18;;;7.00;99.90;;;;;;4901881;29;20055;-72
2023/01/30 08:26:26;;;;;;;23.75;5.22;;;7.00;99.90;;;;;;4933180;29;20052;-72
2023/01/30 08:28:52;;;;;;;29.40;4.50;;;7.00;99.90;;;;;;4917246;29;20552;-72
2023/01/30 08:31:17;;;;;;;23.02;4.10;;;7.00;99.90;;;;;;4933339;29;20048;-73
2023/01/30 08:33:43;;;;;;;21.45;3.63;;;6.90;99.90;;;;;;4933346;29;20123;-72
2023/01/30 08:36:09;;;;;;;26.65;4.40;;;7.00;99.90;;;;;;4944408;29;20039;-72
2023/01/30 08:38:35;;;;;;;15.60;3.42;;;7.00;99.90;;;;;;4951811;28;20105;-73
2023/01/30 08:41:04;;;;;;;15.38;3.95;;;7.00;99.90;;;;;;4936291;29;20086;-72
2023/01/30 08:43:29;;;;;;;20.08;3.83;;;7.00;99.90;;;;;;4952465;29;20065;-72
2023/01/30 08:45:56;;;;;;;24.55;4.18;;;7.00;99.90;;;;;;4949101;28;20107;-73
2023/01/30 08:48:22;;;;;;;;;;;7.00;99.90;;;;;;4947464;28;20050;-72
2023/01/30 08:50:53;;;;;;;26.27;3.80;;;7.00;99.90;;;;;;4947967;29;19922;-72
2023/01/30 08:53:20;;;;;;;27.98;4.47;;;7.10;99.90;;;;;;4962640;28;20479;-72
2023/01/30 08:55:48;;;;;;;22.35;4.28;;;7.10;99.90;;;;;;4945911;29;20043;-73
2023/01/30 08:58:14;;;;;;;18.98;4.13;;;7.10;99.90;;;;;;4945169;29;20138;-72
2023/01/30 09:00:43;;;;;;;18.40;3.53;;;7.10;99.90;;;;;;4942011;29;20490;-72
2023/01/30 09:03:09;;;;;;;19.30;3.25;;;7.20;99.90;;;;;;4944238;29;20082;-73
2023/01/30 09:05:34;;;;;;;18.13;3.78;;;7.20;99.90;;;;;;4934526;29;20031;-73
2023/01/30 09:08:00;;;;;;;21.67;3.80;;;7.20;99.90;;;;;;4949230;29;20043;-73
2023/01/30 09:10:26;;;;;;;24.15;4.10;;;7.20;99.90;;;;;;4953653;28;20036;-73
2023/01/30 09:12:52;;;;;;;20.92;4.13;;;7.20;99.90;;;;;;4921216;29;20585;-73
2023/01/30 09:15:17;;;;;;;21.48;3.92;;;7.20;99.90;;;;;;4951952;29;20086;-72
2023/01/30 09:17:43;;;;;;;27.42;4.65;;;7.20;99.90;;;;;;4949494;29;20191;-73
2023/01/30 09:20:10;;;;;;;23.80;3.88;;;7.20;99.90;;;;;;4951505;29;20043;-73
2023/01/30 09:22:36;;;;;;;22.13;3.88;;;7.20;99.90;;;;;;4951148;29;20047;-73
2023/01/30 09:25:03;;;;;;;23.15;4.30;;;7.30;99.90;;;;;;4951021;29;20384;-73
2023/01/30 09:27:29;;;;;;;21.05;4.05;;;7.20;99.90;;;;;;4949892;29;20042;-73
2023/01/30 09:29:55;;;;;;;23.48;4.40;;;7.20;99.90;;;;;;4951045;29;20089;-73
2023/01/30 09:32:21;;;;;;;24.00;4.03;;;7.30;99.90;;;;;;4950942;29;20103;-73
2023/01/30 09:34:47;;;;;;;27.02;4.20;;;7.30;99.90;;;;;;4925342;28;20654;-73
2023/01/30 09:37:12;;;;;;;25.00;4.15;;;7.10;99.90;;;;;;4950874;29;20177;-73
2023/01/30 09:39:38;;;;;;;23.45;4.18;;;6.80;99.90;;;;;;4951727;29;20059;-74
2023/01/30 09:42:04;;;;;;;22.73;4.70;;;6.70;99.90;;;;;;4935250;29;20057;-73
2023/01/30 09:44:57;;;;;;;23.45;4.22;;;6.80;99.90;;;;;;4951289;29;20047;-73
2023/01/30 09:47:38;;;;;;;26.30;4.75;;;6.80;99.90;;;;;;4951311;29;20047;-73
2023/01/30 09:50:46;;;;;;;33.92;4.63;;;7.00;99.90;;;;;;4945386;29;20135;-73
2023/01/30 09:53:49;;;;;;;32.15;4.97;;;7.10;99.90;;;;;;4945710;28;20043;-73
2023/01/30 09:56:15;;;;;;;23.20;4.78;;;7.20;99.90;;;;;;4916111;29;20037;-73
2023/01/30 09:58:47;;;;;;;20.95;4.15;;;7.30;99.90;;;;;;4933576;29;20058;-73
2023/01/30 10:01:22;;;;;;;23.52;5.70;;;7.40;99.90;;;;;;4951068;29;20059;-73
2023/01/30 10:04:08;;;;;;;23.10;4.47;;;7.50;99.90;;;;;;4951050;29;20261;-73
2023/01/30 10:06:40;;;;;;;25.77;4.32;;;7.50;99.90;;;;;;4950160;29;20055;-73
2023/01/30 10:09:36;;;;;;;17.50;3.80;;;7.50;99.90;;;;;;4935317;29;20132;-73
2023/01/30 10:12:16;;;;;;;29.73;5.03;;;7.50;99.90;;;;;;4950958;29;20129;-77
2023/01/30 10:14:55;;;;;;;24.67;4.35;;;7.60;99.90;;;;;;4950966;29;20047;-73
2023/01/30 10:17:48;;;;;;;19.98;4.40;;;7.60;99.90;;;;;;4932165;29;20047;-72
2023/01/30 10:20:32;;;;;;;20.50;4.35;;;7.70;99.90;;;;;;4946605;29;20137;-73
2023/01/30 10:23:20;;;;;;;25.05;5.57;;;7.80;99.90;;;;;;4935459;28;20035;-73
2023/01/30 10:25:56;;;;;;;22.98;4.68;;;7.80;99.90;;;;;;4946364;29;20420;-72
2023/01/30 10:28:26;;;;;;;13.82;2.58;;;7.40;99.90;;;;;;4942834;29;20103;-72
2023/01/30 10:30:59;;;;;;;8.40;1.58;;;7.10;99.90;;;;;;4926664;29;20058;-72
2023/01/30 10:33:34;;;;;;;10.57;1.65;;;6.80;99.90;;;;;;4938839;29;20036;-72
2023/01/30 10:36:31;;;;;;;7.90;1.20;;;6.70;99.90;;;;;;4941367;28;20050;-72
2023/01/30 10:38:59;;;;;;;3.22;0.85;;;6.30;99.90;;;;;;4948230;29;20370;-72
2023/01/30 10:41:35;;;;;;;3.90;0.57;;;6.10;99.90;;;;;;4949699;29;20098;-72
2023/01/30 10:44:13;;;;;;;2.80;0.60;;;6.10;99.90;;;;;;4951010;29;20047;-72
2023/01/30 10:46:51;;;;;;;5.15;1.00;;;6.10;99.90;;;;;;4946866;29;20463;-72
2023/01/30 10:49:47;;;;;;;6.63;1.20;;;6.10;99.90;;;;;;4931242;29;20051;-72
2023/01/30 10:52:55;;;;;;;7.43;1.23;;;6.30;99.90;;;;;;4941289;29;20387;-72
2023/01/30 10:55:28;;;;;;;11.70;1.92;;;6.50;99.90;;;;;;4879374;29;20052;-72
2023/01/30 10:58:13;;;;;;;9.90;1.60;;;6.60;99.90;;;;;;4923168;29;20067;-72
2023/01/30 11:00:44;;;;;;;12.27;2.35;;;6.80;99.90;;;;;;4916030;29;20055;-72
2023/01/30 11:03:31;;;;;;;10.50;2.17;;;6.90;99.90;;;;;;4935942;29;20039;-72
2023/01/30 11:06:05;;;;;;;13.85;2.63;;;7.00;99.90;;;;;;4938020;29;20043;-72
2023/01/30 11:08:33;;;;;;;13.48;2.40;;;7.10;99.90;;;;;;4937273;29;20043;-72
2023/01/30 11:11:00;;;;;;;11.73;2.40;;;7.20;99.90;;;;;;4922448;29;20395;-72
2023/01/30 11:13:31;;;;;;;18.65;3.42;;;7.30;99.90;;;;;;4921484;29;20578;-72
2023/01/30 11:16:05;;;;;;;11.00;2.35;;;7.40;99.90;;;;;;4933611;29;20061;-72
2023/01/30 11:18:32;;;;;;;12.27;2.95;;;7.60;99.90;;;;;;4932073;29;20039;-73
2023/01/30 11:21:03;;;;;;;18.02;3.22;;;7.70;99.90;;;;;;4938146;29;20151;-72
2023/01/30 11:23:35;;;;;;;15.88;3.35;;;7.80;99.90;;;;;;4937062;29;20559;-72
2023/01/30 11:26:02;;;;;;;13.40;2.60;;;7.70;99.90;;;;;;4936197;29;20122;-72
2023/01/30 11:28:37;;;;;;;15.27;3.13;;;7.80;99.90;;;;;;4937434;29;20502;-72
2023/01/30 11:31:03;;;;;;;14.15;2.50;;;7.90;99.90;;;;;;4928312;29;20049;-72
2023/01/30 11:33:39;;;;;;;10.10;2.42;;;7.90;99.90;;;;;;4934271;29;20130;-72
2023/01/30 11:36:21;;;;;;;15.27;2.90;;;7.90;99.90;;;;;;4937615;29;20047;-72
2023/01/30 11:39:03;;;;;;;17.83;3.05;;;7.90;99.90;;;;;;4932365;29;20063;-72
2023/01/30 11:41:30;;;;;;;14.93;2.95;;;7.80;99.90;;;;;;4931830;29;20055;-72
2023/01/30 11:44:03;;;;;;;;;;;7.70;99.90;;;;;;4937341;28;20403;-72
2023/01/30 11:46:33;;;;;;;18.73;2.70;;;7.70;99.90;;;;;;4928137;29;19929;-72
2023/01/30 11:49:14;;;;;;;12.10;2.75;;;7.60;99.90;;;;;;4941775;29;20491;-72
2023/01/30 11:51:45;;;;;;;10.82;2.20;;;7.70;99.90;;;;;;4931190;29;20503;-72
2023/01/30 11:54:36;;;;;;;10.77;2.10;;;7.80;99.90;;;;;;4929798;29;20043;-72
2023/01/30 11:57:05;;;;;;;12.55;2.33;;;8.10;99.90;;;;;;4935222;29;20063;-72
2023/01/30 11:59:35;;;;;;;15.55;3.00;;;7.90;99.90;;;;;;4944050;28;20171;-72
2023/01/30 12:02:22;;;;;;;18.80;3.13;;;7.90;99.90;;;;;;4952526;29;20054;-72
2023/01/30 12:04:53;;;;;;;12.73;2.50;;;7.90;99.90;;;;;;4947314;29;20131;-72
2023/01/30 12:07:27;;;;;;;14.75;2.83;;;7.80;99.90;;;;;;4938360;28;20055;-72
2023/01/30 12:09:55;;;;;;;15.05;2.75;;;7.70;99.90;;;;;;4950086;28;20040;-74
2023/01/30 12:12:46;;;;;;;14.93;2.83;;;7.70;99.90;;;;;;4946498;29;20129;-74
2023/01/30 12:15:25;;;;;;;13.98;2.70;;;7.70;99.90;;;;;;4945934;29;20058;-72
2023/01/30 12:18:12;;;;;;;16.60;2.92;;;7.90;99.90;;;;;;4946092;29;20456;-72
2023/01/30 12:20:59;;;;;;;12.45;2.78;;;7.90;99.90;;;;;;4955046;28;20083;-72
2023/01/30 12:23:45;;;;;;;14.93;2.78;;;8.00;99.90;;;;;;4937142;29;20192;-72
2023/01/30 12:26:36;;;;;;;22.83;3.22;;;7.90;99.90;;;;;;4951711;28;20122;-73
2023/01/30 12:29:34;;;;;;;13.82;3.22;;;7.90;99.90;;;;;;4952610;29;20062;-73
2023/01/30 12:32:16;;;;;;;19.15;3.75;;;8.00;99.90;;;;;;4952223;29;20487;-73
2023/01/30 12:34:46;;;;;;;17.73;3.40;;;8.00;99.90;;;;;;4952394;29;20035;-73
2023/01/30 12:37:47;;;;;;;19.33;4.65;;;7.90;99.90;;;;;;4917942;29;20462;-73
2023/01/30 12:40:34;;;;;;;19.17;3.50;;;7.90;99.90;;;;;;4911928;29;20059;-73
2023/01/30 12:43:32;;;;;;;14.18;2.97;;;8.00;99.90;;;;;;4933910;29;20093;-73
2023/01/30 12:46:04;;;;;;;;;;;8.00;99.90;;;;;;4918685;29;20055;-73
2023/01/30 12:49:01;;;;;;;21.05;3.70;;;8.00;99.90;;;;;;4933303;29;19950;-73
2023/01/30 12:51:38;;;;;;;17.98;3.10;;;8.00;99.90;;;;;;4933319;29;20056;-72
2023/01/30 12:54:04;;;;;;;17.50;3.50;;;8.00;99.90;;;;;;4933023;29;20060;-73
2023/01/30 12:57:00;;;;;;;18.77;3.33;;;8.00;99.90;;;;;;4933852;29;20058;-73
2023/01/30 12:59:54;;;;;;;17.52;3.17;;;8.00;99.90;;;;;;4952021;29;20142;-73
2023/01/30 13:02:57;;;;;;;14.68;3.00;;;8.00;99.90;;;;;;4936355;29;20058;-73
2023/01/30 13:05:54;;;;;;;16.63;3.50;;;7.90;99.90;;;;;;4930404;29;20059;-73
2023/01/30 13:08:50;;;;;;;21.10;3.60;;;7.90;99.90;;;;;;4936170;29;20109;-75
2023/01/30 13:11:37;;;;;;;18.60;3.15;;;8.00;99.90;;;;;;4935193;29;20511;-74
2023/01/30 13:14:18;;;;;;;15.60;3.28;;;7.90;99.90;;;;;;4925586;29;20054;-74
2023/01/30 13:17:24;;;;;;;21.98;3.22;;;7.90;99.90;;;;;;4947887;29;20079;-74
2023/01/30 13:20:04;;;;;;;19.98;3.15;;;8.00;99.90;;;;;;4937902;29;20074;-74